LFMN

Nice-Côte d'Azur Airport

Nice, France
TAF LFMN 241400Z 2415/2521 09010KT 9999 SCT035 TEMPO 2415/2419 BKN040 TEMPO 2422/2521 09020G30KT
Issued Valid From Valid To
Sep-24 @ 14:00 UTC
(5 hours ago)
Sep-24 @ 15:00 UTC
(4 hours ago)
Sep-25 @ 21:00 UTC
(-1 days ago)
Sep-24 @ 15:00 to Sep-25 @ 21:00
TAF LFMN 241400Z 2415/2521 09010KT 9999 SCT035
Wind Visibility Clouds
90° at 10 knots 10,000+ meters
  • Scattered at 3,500' AGL
Expired Click to View Sep-24 @ 15:00 to Sep-24 @ 19:00
TEMPO 2415/2419 BKN040
Clouds
  • Broken at 4,000' AGL
Temporary Sep-24 @ 22:00 to Sep-25 @ 21:00
TEMPO 2422/2521 09020G30KT
Wind
90° at 20 knots
 Gusting to 30 knots
TAF LFMN 241400Z 2415/2521 09010KT 9999 SCT035 TEMPO 2415/2419 BKN040 TEMPO 2422/2521 09020G30KT
Issued Sep-24 @ 14:00 UTC
(5 hours ago)
Valid From Sep-24 @ 15:00 UTC
(4 hours ago)
Valid To Sep-25 @ 21:00 UTC
(-1 days ago)
Sep-24 @ 15:00 - Sep-25 @ 21:00
Wind Visibility
90° at 10 knots 10,000+ meters
Clouds
  • Scattered at 3,500' AGL
Sep-24 @ 15:00 - Sep-24 @ 19:00
Clouds
  • Broken at 4,000' AGL
Temporary Sep-24 @ 22:00 - Sep-25 @ 21:00
Wind
90° at 20 knots
 Gusting to 30 knots